Weather at Washington Executive Airport Hyde Field [CLOSED]

Public forecast

Using degrees Fahrenheit for public forecast. Weather courtesy of forecast.io.

Closest aviation weather report (METAR) to Washington Executive Airport Hyde Field

Closest report is Joint Base Andrews, 4.9 nm (9.0 km) NE.

2024/07/22 09:55 (retrieved 1 hour ago)

KADW 220955Z AUTO 11003KT 10SM FEW130 24/22 A3002 RMK AO2 SLP170 T02360224

Closest aviation forecast (TAF) to Washington Executive Airport Hyde Field

Closest forecast is Joint Base Andrews, 4.9 nm (9.0 km) NE.

2024/07/22 09:48 (retrieved 1 hour ago)

TAF KADW 220900Z 2209/2315 18006KT 9999 SCT060 BKN150 QNH3002INS BECMG 2214/2215 15010KT 9999 VCSH FEW025 BKN040 OVC100 QNH3000INS BECMG 2215/2216 15010KT 9999 -SHRA VCTS FEW020CB BKN050 BKN120 QNH2995INS TEMPO 2218/2222 18012G21KT 8000 -TSRA BKN020 BKN040CB OVC100 BECMG 2223/2224 16010G15KT 9999 VCSH BKN030 OVC100 QNH2996INS BECMG 2301/2302 16009KT 9999 NSW BKN030 OVC080 QNH2994INS BECMG 2304/2305 21006KT 9999 -SHRA SCT010 OVC018 QNH2992INS BECMG 2306/2307 22003KT 6000 BR BKN006 QNH2994INS BECMG 2312/2313 25006KT 9999 NSW FEW009 BKN015 BKN020 QNH2997INS TX28/2219Z TN22/2210Z